Time;durP1;ratioP1;P1;durP2;ratioP2;P2;SDS_P1;SDS_P2;PMS_P1;PMS_P2;Temp;Humidity;BMP_temperature;BMP_pressure;BME280_temperature;BME280_humidity;BME280_pressure;Samples;Min_cycle;Max_cycle;Signal;HPM_P1;HPM_P2
2022/11/14 00:00:36;;;;;;;;;;;19.30;70.90;;;;;;5067135;28;941;-68
2022/11/14 00:03:02;;;;;;;;;;;19.30;70.90;;;;;;5047612;28;1959;-69
2022/11/14 00:05:28;;;;;;;;;;;19.30;70.90;;;;;;5065127;28;915;-68
2022/11/14 00:07:53;;;;;;;;;;;19.30;70.90;;;;;;5065528;28;1307;-69
2022/11/14 00:10:19;;;;;;;;;;;19.30;71.00;;;;;;5065839;28;832;-69
2022/11/14 00:12:44;;;;;;;;;;;19.30;70.90;;;;;;5062795;28;895;-69
2022/11/14 00:15:10;;;;;;;;;;;19.30;71.00;;;;;;5068225;28;807;-69
2022/11/14 00:17:35;;;;;;;;;;;19.30;70.90;;;;;;5064704;28;941;-69
2022/11/14 00:20:01;;;;;;;;;;;19.30;70.90;;;;;;5067704;28;1277;-69
2022/11/14 00:22:26;;;;;;;;;;;19.30;70.90;;;;;;5051820;28;1898;-70
2022/11/14 00:24:52;;;;;;;;;;;19.30;70.90;;;;;;5065448;28;1021;-69
2022/11/14 00:27:17;;;;;;;;;;;19.30;71.00;;;;;;5068973;28;1267;-70
2022/11/14 00:29:43;;;;;;;;;;;19.30;71.00;;;;;;5065048;28;1286;-69
2022/11/14 00:32:08;;;;;;;;;;;19.30;71.00;;;;;;5051938;28;1479;-70
2022/11/14 00:34:34;;;;;;;;;;;19.30;71.00;;;;;;5067920;28;811;-69
2022/11/14 00:36:59;;;;;;;;;;;19.30;70.90;;;;;;5065516;28;802;-70
2022/11/14 00:39:25;;;;;;;;;;;19.30;71.00;;;;;;5048031;28;1264;-69
2022/11/14 00:41:50;;;;;;;;;;;19.30;71.00;;;;;;5052863;28;1905;-69
2022/11/14 00:44:15;;;;;;;;;;;19.30;71.00;;;;;;5048964;28;1358;-70
2022/11/14 00:46:41;;;;;;;;;;;19.30;71.00;;;;;;5064760;28;1611;-69
2022/11/14 00:49:06;;;;;;;;;;;19.30;71.00;;;;;;5051133;28;1593;-68
2022/11/14 00:51:32;;;;;;;;;;;19.30;71.00;;;;;;5066991;28;1343;-69
2022/11/14 00:53:57;;;;;;;;;;;19.30;71.00;;;;;;5069809;28;1183;-69
2022/11/14 00:56:23;;;;;;;;;;;19.30;71.70;;;;;;5051677;28;1196;-69
2022/11/14 00:58:48;;;;;;;;;;;19.30;71.00;;;;;;5066605;28;1344;-69
2022/11/14 01:01:14;;;;;;;;;;;19.30;70.90;;;;;;5064400;28;864;-69
2022/11/14 01:03:39;;;;;;;;;;;19.30;70.90;;;;;;5063357;28;1909;-69
2022/11/14 01:06:05;;;;;;;;;;;19.30;71.00;;;;;;5063992;28;924;-70
2022/11/14 01:08:31;;;;;;;;;;;19.30;71.00;;;;;;5052517;28;1267;-69
2022/11/14 01:10:57;;;;;;;;;;;19.30;71.00;;;;;;5045527;28;817;-70
2022/11/14 01:13:22;;;;;;;;;;;19.30;71.00;;;;;;5064307;28;818;-70
2022/11/14 01:15:48;;;;;;;;;;;19.30;71.00;;;;;;5067512;28;1077;-69
2022/11/14 01:18:17;;;;;;;;;;;19.30;71.00;;;;;;5062826;28;1329;-69
2022/11/14 01:20:43;;;;;;;;;;;19.30;71.00;;;;;;5061546;28;869;-70
2022/11/14 01:23:08;;;;;;;;;;;19.20;70.90;;;;;;5046978;28;1979;-69
2022/11/14 01:25:34;;;;;;;;;;;19.20;70.90;;;;;;5064326;28;1262;-69
2022/11/14 01:28:00;;;;;;;;;;;19.20;70.90;;;;;;5043916;28;1502;-69
2022/11/14 01:30:25;;;;;;;;;;;19.30;71.00;;;;;;5051075;28;1097;-70
2022/11/14 01:32:51;;;;;;;;;;;19.30;71.00;;;;;;5063666;28;1423;-69
2022/11/14 01:35:16;;;;;;;;;;;19.30;71.00;;;;;;5063909;28;891;-69
2022/11/14 01:37:41;;;;;;;;;;;19.30;71.00;;;;;;5062743;28;903;-69
2022/11/14 01:40:07;;;;;;;;;;;19.20;70.90;;;;;;5064236;28;1240;-69
2022/11/14 01:42:33;;;;;;;;;;;19.30;71.00;;;;;;5065532;28;1906;-69
2022/11/14 01:44:58;;;;;;;;;;;19.20;70.90;;;;;;5052329;28;1444;-69
2022/11/14 01:47:25;;;;;;;;;;;19.30;71.00;;;;;;5064584;28;1266;-70
2022/11/14 01:49:56;;;;;;;;;;;19.30;71.00;;;;;;5051516;28;1443;-69
2022/11/14 01:52:21;;;;;;;;;;;19.20;70.90;;;;;;5050765;28;1415;-69
2022/11/14 01:54:48;;;;;;;;;;;19.20;71.00;;;;;;5061466;28;1394;-69
2022/11/14 01:57:14;;;;;;;;;;;19.20;71.00;;;;;;5064907;28;1361;-68
2022/11/14 01:59:40;;;;;;;;;;;19.20;71.00;;;;;;5065150;28;1441;-69
2022/11/14 02:02:07;;;;;;;;;;;19.20;71.00;;;;;;5051028;28;1902;-70
2022/11/14 02:04:34;;;;;;;;;;;19.30;71.10;;;;;;5052169;28;1345;-69
2022/11/14 02:07:00;;;;;;;;;;;19.20;71.00;;;;;;5044094;28;1305;-68
2022/11/14 02:09:26;;;;;;;;;;;19.20;71.00;;;;;;5062632;28;1588;-68
2022/11/14 02:11:52;;;;;;;;;;;19.20;71.00;;;;;;5052164;28;1312;-69
2022/11/14 02:14:17;;;;;;;;;;;19.30;71.30;;;;;;5051522;28;1409;-68
2022/11/14 02:16:43;;;;;;;;;;;19.30;71.10;;;;;;5063670;28;1404;-68
2022/11/14 02:19:08;;;;;;;;;;;19.20;71.00;;;;;;5066550;28;1381;-71
2022/11/14 02:21:34;;;;;;;;;;;19.20;71.00;;;;;;5065090;28;1391;-71
2022/11/14 02:23:59;;;;;;;;;;;19.20;71.00;;;;;;5063848;28;1969;-71
2022/11/14 02:26:25;;;;;;;;;;;19.20;71.00;;;;;;5066426;28;1420;-70
2022/11/14 02:28:50;;;;;;;;;;;19.20;71.00;;;;;;5064596;28;1372;-69
2022/11/14 02:31:19;;;;;;;;;;;19.20;71.00;;;;;;5062167;28;1349;-70
2022/11/14 02:33:44;;;;;;;;;;;19.20;71.00;;;;;;5061375;28;911;-68
2022/11/14 02:36:10;;;;;;;;;;;19.20;71.00;;;;;;5061913;28;938;-69
2022/11/14 02:38:35;;;;;;;;;;;19.30;71.10;;;;;;5064395;28;1335;-68
2022/11/14 02:41:01;;;;;;;;;;;19.20;71.00;;;;;;5061265;28;887;-69
2022/11/14 02:43:26;;;;;;;;;;;19.20;71.00;;;;;;5047704;28;1942;-70
2022/11/14 02:45:52;;;;;;;;;;;19.20;71.00;;;;;;5062116;28;938;-69
2022/11/14 02:48:17;;;;;;;;;;;19.20;71.00;;;;;;5064679;28;1338;-69
2022/11/14 02:50:43;;;;;;;;;;;19.20;71.00;;;;;;5064125;28;953;-69
2022/11/14 02:53:08;;;;;;;;;;;19.20;71.00;;;;;;5062535;28;866;-69
2022/11/14 02:55:33;;;;;;;;;;;19.20;71.00;;;;;;5063869;28;783;-70
2022/11/14 02:57:59;;;;;;;;;;;19.20;71.10;;;;;;5064472;28;1355;-69
2022/11/14 03:00:24;;;;;;;;;;;19.20;71.00;;;;;;5063612;28;867;-70
2022/11/14 03:02:51;;;;;;;;;;;19.20;71.10;;;;;;5048196;28;1976;-69
2022/11/14 03:05:17;;;;;;;;;;;19.20;71.00;;;;;;5062303;28;962;-69
2022/11/14 03:07:42;;;;;;;;;;;19.20;71.00;;;;;;5061930;28;998;-69
2022/11/14 03:10:08;;;;;;;;;;;19.20;71.00;;;;;;5066954;28;1273;-69
2022/11/14 03:12:34;;;;;;;;;;;19.20;71.80;;;;;;5046806;28;875;-69
2022/11/14 03:14:59;;;;;;;;;;;19.20;71.00;;;;;;5061262;28;875;-68
2022/11/14 03:17:25;;;;;;;;;;;19.20;71.00;;;;;;5060539;28;919;-69
2022/11/14 03:19:50;;;;;;;;;;;19.20;71.00;;;;;;5062238;28;1314;-69
2022/11/14 03:22:15;;;;;;;;;;;19.20;71.00;;;;;;5066375;28;1961;-69
2022/11/14 03:24:41;;;;;;;;;;;19.20;71.00;;;;;;5065823;28;855;-68
2022/11/14 03:27:06;;;;;;;;;;;19.20;71.00;;;;;;5064074;28;952;-70
2022/11/14 03:29:32;;;;;;;;;;;19.20;71.00;;;;;;5071400;28;1244;-70
2022/11/14 03:31:57;;;;;;;;;;;19.20;71.00;;;;;;5066325;28;1346;-70
2022/11/14 03:34:23;;;;;;;;;;;19.20;71.00;;;;;;5064873;28;816;-70
2022/11/14 03:36:48;;;;;;;;;;;19.20;71.00;;;;;;5062329;28;868;-70
2022/11/14 03:39:14;;;;;;;;;;;19.30;71.10;;;;;;5065771;28;1347;-70
2022/11/14 03:41:39;;;;;;;;;;;19.30;71.10;;;;;;5065212;28;923;-69
2022/11/14 03:44:04;;;;;;;;;;;19.20;71.00;;;;;;5068240;28;1905;-69
2022/11/14 03:46:30;;;;;;;;;;;19.30;71.10;;;;;;5063717;28;812;-69
2022/11/14 03:48:55;;;;;;;;;;;19.20;71.00;;;;;;5066268;28;1330;-68
2022/11/14 03:51:21;;;;;;;;;;;19.20;71.00;;;;;;5066927;28;845;-68
2022/11/14 03:53:46;;;;;;;;;;;19.30;71.00;;;;;;5063259;28;882;-68
2022/11/14 03:56:12;;;;;;;;;;;19.20;71.00;;;;;;5064478;28;1165;-68
2022/11/14 03:58:37;;;;;;;;;;;19.20;71.00;;;;;;5064667;28;1271;-68
2022/11/14 04:01:03;;;;;;;;;;;19.20;71.00;;;;;;5063781;28;848;-68
2022/11/14 04:03:28;;;;;;;;;;;19.20;71.00;;;;;;5066276;28;1961;-68
2022/11/14 04:05:54;;;;;;;;;;;19.20;71.00;;;;;;5062215;28;869;-68
2022/11/14 04:08:19;;;;;;;;;;;19.20;71.00;;;;;;5067867;28;1280;-70
2022/11/14 04:10:48;;;;;;;;;;;19.20;71.00;;;;;;5054022;28;891;-71
2022/11/14 04:13:13;;;;;;;;;;;19.20;71.00;;;;;;5071464;28;1250;-70
2022/11/14 04:15:39;;;;;;;;;;;19.20;71.00;;;;;;5048136;28;1034;-70
2022/11/14 04:18:04;;;;;;;;;;;19.20;71.00;;;;;;5069359;28;1228;-70
2022/11/14 04:20:30;;;;;;;;;;;19.20;71.00;;;;;;5054143;28;1085;-69
2022/11/14 04:22:55;;;;;;;;;;;19.20;71.00;;;;;;5064532;28;1992;-69
2022/11/14 04:25:21;;;;;;;;;;;19.20;71.00;;;;;;5062760;28;903;-69
2022/11/14 04:27:46;;;;;;;;;;;19.20;71.00;;;;;;5068863;28;1470;-69
2022/11/14 04:30:12;;;;;;;;;;;19.20;71.00;;;;;;5066864;28;1336;-69
2022/11/14 04:32:37;;;;;;;;;;;19.20;71.00;;;;;;5067887;28;1421;-68
2022/11/14 04:35:03;;;;;;;;;;;19.20;71.00;;;;;;5065029;28;777;-68
2022/11/14 04:37:28;;;;;;;;;;;19.20;71.00;;;;;;5069699;28;1018;-68
2022/11/14 04:39:57;;;;;;;;;;;19.20;71.00;;;;;;5069486;28;1213;-69
2022/11/14 04:42:23;;;;;;;;;;;19.20;71.00;;;;;;5053522;28;1966;-68
2022/11/14 04:44:49;;;;;;;;;;;19.20;71.00;;;;;;5068246;28;889;-70
2022/11/14 04:47:14;;;;;;;;;;;19.20;71.10;;;;;;5067968;28;887;-69
2022/11/14 04:49:40;;;;;;;;;;;19.20;71.00;;;;;;5065885;28;1377;-70
2022/11/14 04:52:05;;;;;;;;;;;19.20;71.00;;;;;;5066787;28;863;-69
2022/11/14 04:54:31;;;;;;;;;;;19.20;71.00;;;;;;5064756;28;804;-69
2022/11/14 04:56:56;;;;;;;;;;;19.20;71.10;;;;;;5063568;28;891;-69
2022/11/14 04:59:21;;;;;;;;;;;19.20;71.00;;;;;;5052955;28;1354;-69
2022/11/14 05:01:47;;;;;;;;;;;19.20;71.00;;;;;;5062121;28;1215;-69
2022/11/14 05:04:12;;;;;;;;;;;19.20;71.00;;;;;;5062701;28;2028;-69
2022/11/14 05:06:38;;;;;;;;;;;19.20;71.00;;;;;;5047713;28;935;-69
2022/11/14 05:09:03;;;;;;;;;;;19.20;71.00;;;;;;5063416;28;1255;-69
2022/11/14 05:11:29;;;;;;;;;;;19.20;71.10;;;;;;5063014;28;808;-70
2022/11/14 05:13:54;;;;;;;;;;;19.20;71.00;;;;;;5068743;28;903;-69
2022/11/14 05:16:20;;;;;;;;;;;19.20;71.00;;;;;;5066247;28;863;-68
2022/11/14 05:18:45;;;;;;;;;;;19.20;71.00;;;;;;5067166;28;1241;-68
2022/11/14 05:21:14;;;;;;;;;;;19.30;71.00;;;;;;5064902;28;802;-68
2022/11/14 05:23:39;;;;;;;;;;;19.30;70.90;;;;;;5064883;28;1906;-68
2022/11/14 05:26:05;;;;;;;;;;;19.30;70.80;;;;;;5065253;28;1358;-68
2022/11/14 05:28:31;;;;;;;;;;;19.30;70.80;;;;;;5062894;28;1372;-68
2022/11/14 05:31:02;;;;;;;;;;;19.30;70.70;;;;;;5066033;28;835;-67
2022/11/14 05:33:28;;;;;;;;;;;19.40;70.60;;;;;;5063238;28;1421;-68
2022/11/14 05:35:54;;;;;;;;;;;19.40;70.60;;;;;;5053024;28;990;-68
2022/11/14 05:38:19;;;;;;;;;;;19.40;70.50;;;;;;5066890;28;1233;-68
2022/11/14 05:40:44;;;;;;;;;;;19.40;70.40;;;;;;5064551;28;851;-68
2022/11/14 05:43:10;;;;;;;;;;;19.40;70.30;;;;;;5066827;28;1902;-68
2022/11/14 05:45:35;;;;;;;;;;;19.40;70.30;;;;;;5041881;28;1562;-69
2022/11/14 05:48:01;;;;;;;;;;;19.40;70.10;;;;;;5047579;28;1256;-68
2022/11/14 05:50:26;;;;;;;;;;;19.50;70.20;;;;;;5063388;28;940;-69
2022/11/14 05:52:52;;;;;;;;;;;19.50;70.10;;;;;;5063344;28;930;-69
2022/11/14 05:55:17;;;;;;;;;;;19.50;70.00;;;;;;5064960;28;885;-69
2022/11/14 05:57:43;;;;;;;;;;;19.50;70.00;;;;;;5051070;28;1631;-69
2022/11/14 06:00:08;;;;;;;;;;;19.50;69.90;;;;;;5062540;28;1291;-69
2022/11/14 06:02:34;;;;;;;;;;;19.50;70.00;;;;;;5067201;28;1934;-69
2022/11/14 06:04:59;;;;;;;;;;;19.60;69.90;;;;;;5063153;28;866;-68
2022/11/14 06:07:25;;;;;;;;;;;19.50;69.80;;;;;;5065943;28;895;-70
2022/11/14 06:09:50;;;;;;;;;;;19.60;69.80;;;;;;5063665;28;1366;-70
2022/11/14 06:12:16;;;;;;;;;;;19.60;69.80;;;;;;5065065;28;882;-71
2022/11/14 06:14:41;;;;;;;;;;;19.60;69.70;;;;;;5043651;28;921;-71
2022/11/14 06:17:07;;;;;;;;;;;19.60;69.80;;;;;;5064797;28;935;-68
2022/11/14 06:19:32;;;;;;;;;;;19.60;69.70;;;;;;5062634;28;1266;-69
2022/11/14 06:21:58;;;;;;;;;;;19.60;69.60;;;;;;5061351;28;840;-71
2022/11/14 06:24:23;;;;;;;;;;;19.60;69.60;;;;;;5032954;28;1914;-69
2022/11/14 06:26:48;;;;;;;;;;;19.60;69.60;;;;;;5060122;28;1863;-69
2022/11/14 06:29:14;;;;;;;;;;;19.60;69.50;;;;;;5061897;28;1331;-70
2022/11/14 06:31:39;;;;;;;;;;;19.60;69.50;;;;;;5063633;28;1246;-68
2022/11/14 06:34:05;;;;;;;;;;;19.60;69.50;;;;;;5065016;28;986;-67
2022/11/14 06:36:30;;;;;;;;;;;19.60;69.50;;;;;;5065182;28;870;-69
2022/11/14 06:38:56;;;;;;;;;;;19.60;69.50;;;;;;5064678;28;1275;-69
2022/11/14 06:41:21;;;;;;;;;;;19.60;69.50;;;;;;5062540;28;1072;-69
2022/11/14 06:43:47;;;;;;;;;;;19.60;69.40;;;;;;5062624;28;1978;-68
2022/11/14 06:46:14;;;;;;;;;;;19.60;69.40;;;;;;5047570;28;957;-68
2022/11/14 06:48:39;;;;;;;;;;;19.60;69.40;;;;;;5046972;28;1236;-69
2022/11/14 06:51:05;;;;;;;;;;;19.60;69.40;;;;;;5061983;28;910;-69
2022/11/14 06:53:31;;;;;;;;;;;19.70;69.40;;;;;;5066404;28;886;-69
2022/11/14 06:55:59;;;;;;;;;;;19.70;69.40;;;;;;5050381;28;896;-69
2022/11/14 06:58:28;;;;;;;;;;;19.60;69.40;;;;;;5065262;28;1261;-69
2022/11/14 07:00:54;;;;;;;;;;;19.60;69.40;;;;;;5044434;28;935;-70
2022/11/14 07:03:19;;;;;;;;;;;19.70;69.40;;;;;;5061959;28;1894;-69
2022/11/14 07:05:45;;;;;;;;;;;19.60;69.30;;;;;;5064869;28;806;-70
2022/11/14 07:08:11;;;;;;;;;;;19.60;69.30;;;;;;5050034;28;1339;-70
2022/11/14 07:10:36;;;;;;;;;;;19.70;69.40;;;;;;5064792;28;1588;-70
2022/11/14 07:13:02;;;;;;;;;;;19.60;69.30;;;;;;5048667;28;850;-70
2022/11/14 07:15:27;;;;;;;;;;;19.60;69.30;;;;;;5062602;28;790;-70
2022/11/14 07:17:53;;;;;;;;;;;19.70;69.40;;;;;;5063449;28;792;-69
2022/11/14 07:20:18;;;;;;;;;;;19.70;69.40;;;;;;5041622;28;835;-69
2022/11/14 07:22:44;;;;;;;;;;;19.70;69.40;;;;;;5034161;28;1918;-70
2022/11/14 07:25:10;;;;;;;;;;;19.60;70.10;;;;;;5063156;28;879;-68
2022/11/14 07:27:35;;;;;;;;;;;19.60;69.30;;;;;;5058241;28;2174;-69
2022/11/14 07:30:00;;;;;;;;;;;19.70;69.40;;;;;;5057197;28;1290;-68
2022/11/14 07:32:26;;;;;;;;;;;19.70;69.40;;;;;;5066282;28;1365;-68
2022/11/14 07:34:51;;;;;;;;;;;19.60;69.30;;;;;;5067959;28;788;-70
2022/11/14 07:37:17;;;;;;;;;;;19.60;69.30;;;;;;5062071;28;1065;-68
2022/11/14 07:39:42;;;;;;;;;;;19.60;69.30;;;;;;5062768;28;1379;-68
2022/11/14 07:42:08;;;;;;;;;;;19.60;69.40;;;;;;5060666;28;1959;-69
2022/11/14 07:44:33;;;;;;;;;;;19.60;69.40;;;;;;5062885;28;844;-68
2022/11/14 07:46:59;;;;;;;;;;;19.60;69.40;;;;;;5065155;28;806;-69
2022/11/14 07:49:24;;;;;;;;;;;19.60;69.40;;;;;;5064541;28;1350;-73
2022/11/14 07:51:49;;;;;;;;;;;19.60;69.40;;;;;;5044708;28;881;-73
2022/11/14 07:54:15;;;;;;;;;;;19.60;69.40;;;;;;5065234;28;934;-72
2022/11/14 07:56:40;;;;;;;;;;;19.60;69.50;;;;;;5062518;28;1065;-69
2022/11/14 07:59:06;;;;;;;;;;;19.60;69.50;;;;;;5063486;28;1326;-69
2022/11/14 08:01:31;;;;;;;;;;;19.60;69.50;;;;;;5063156;28;926;-69
2022/11/14 08:03:57;;;;;;;;;;;19.60;69.50;;;;;;5064893;28;1993;-70
2022/11/14 08:06:22;;;;;;;;;;;19.60;69.50;;;;;;5065430;28;793;-69
2022/11/14 08:08:48;;;;;;;;;;;19.60;69.50;;;;;;5066309;28;1224;-69
2022/11/14 08:11:13;;;;;;;;;;;19.60;69.60;;;;;;5065043;28;871;-70
2022/11/14 08:13:39;;;;;;;;;;;19.60;69.60;;;;;;5066547;28;830;-69
2022/11/14 08:16:05;;;;;;;;;;;19.60;69.60;;;;;;5066525;28;859;-69
2022/11/14 08:18:30;;;;;;;;;;;19.60;69.60;;;;;;5047806;28;1269;-70
2022/11/14 08:20:56;;;;;;;;;;;19.50;69.60;;;;;;5064909;28;911;-69
2022/11/14 08:23:22;;;;;;;;;;;19.60;69.70;;;;;;5064064;28;1938;-69
2022/11/14 08:25:47;;;;;;;;;;;19.60;69.70;;;;;;5053081;28;1265;-69
2022/11/14 08:28:13;;;;;;;;;;;19.60;69.70;;;;;;5061948;28;1341;-69
2022/11/14 08:30:38;;;;;;;;;;;19.60;69.70;;;;;;5065637;28;899;-69
2022/11/14 08:33:04;;;;;;;;;;;19.60;69.70;;;;;;5067991;28;1419;-69
2022/11/14 08:35:29;;;;;;;;;;;19.60;69.70;;;;;;5065368;28;1022;-69
2022/11/14 08:37:55;;;;;;;;;;;19.60;69.70;;;;;;5064106;28;1361;-70
2022/11/14 08:40:20;;;;;;;;;;;19.60;69.70;;;;;;5061977;28;860;-69
2022/11/14 08:42:46;;;;;;;;;;;19.60;69.80;;;;;;5064468;28;1937;-70
2022/11/14 08:45:11;;;;;;;;;;;19.60;69.70;;;;;;5067599;28;850;-70
2022/11/14 08:47:37;;;;;;;;;;;19.60;69.80;;;;;;5065851;28;824;-70
2022/11/14 08:50:02;;;;;;;;;;;19.60;69.70;;;;;;5065529;28;1236;-70
2022/11/14 08:52:28;;;;;;;;;;;19.60;69.70;;;;;;5065327;28;827;-70
2022/11/14 08:54:53;;;;;;;;;;;19.60;69.70;;;;;;5064214;28;974;-70
2022/11/14 08:57:18;;;;;;;;;;;19.60;69.60;;;;;;5065499;28;997;-71
2022/11/14 08:59:44;;;;;;;;;;;19.60;69.60;;;;;;5066379;28;1261;-70
2022/11/14 09:02:10;;;;;;;;;;;19.60;69.60;;;;;;5067692;28;1910;-71
2022/11/14 09:04:36;;;;;;;;;;;19.60;69.60;;;;;;5067093;28;1117;-70
2022/11/14 09:07:01;;;;;;;;;;;19.50;69.60;;;;;;5063395;28;871;-70
2022/11/14 09:09:26;;;;;;;;;;;19.60;69.60;;;;;;5065838;28;1357;-70
2022/11/14 09:11:52;;;;;;;;;;;19.60;69.70;;;;;;5064871;28;798;-71
2022/11/14 09:14:17;;;;;;;;;;;19.60;69.60;;;;;;5066327;28;822;-70
2022/11/14 09:16:43;;;;;;;;;;;19.60;69.60;;;;;;5061961;28;941;-68
2022/11/14 09:19:08;;;;;;;;;;;19.60;69.60;;;;;;5066308;28;1375;-70
2022/11/14 09:21:34;;;;;;;;;;;19.60;69.60;;;;;;5066293;28;1346;-70
2022/11/14 09:23:59;;;;;;;;;;;19.60;69.60;;;;;;5052597;28;1917;-71
2022/11/14 09:26:25;;;;;;;;;;;19.60;69.60;;;;;;5062594;28;1356;-69
2022/11/14 09:28:50;;;;;;;;;;;19.60;69.70;;;;;;5067027;28;1226;-70
2022/11/14 09:31:16;;;;;;;;;;;19.60;69.70;;;;;;5066578;28;1513;-70
2022/11/14 09:33:41;;;;;;;;;;;19.60;69.70;;;;;;5066160;28;812;-69
2022/11/14 09:36:07;;;;;;;;;;;19.60;69.70;;;;;;5060840;28;942;-69
2022/11/14 09:38:33;;;;;;;;;;;19.60;69.70;;;;;;5060561;28;1307;-69
2022/11/14 09:41:01;;;;;;;;;;;19.60;70.50;;;;;;5051467;28;915;-69
2022/11/14 09:43:27;;;;;;;;;;;19.60;69.70;;;;;;5061696;28;1961;-69
2022/11/14 09:45:52;;;;;;;;;;;19.60;69.80;;;;;;5063870;28;863;-70
2022/11/14 09:48:21;;;;;;;;;;;19.60;69.80;;;;;;5062863;28;1245;-70
2022/11/14 09:50:49;;;;;;;;;;;19.60;69.80;;;;;;5048620;28;850;-69
2022/11/14 09:53:21;;;;;;;;;;;19.60;69.80;;;;;;5050366;28;1483;-69
2022/11/14 09:55:46;;;;;;;;;;;19.50;69.80;;;;;;5065218;28;867;-68
2022/11/14 09:58:14;;;;;;;;;;;19.60;69.80;;;;;;5062286;28;1323;-69
2022/11/14 10:00:50;;;;;;;;;;;19.60;70.60;;;;;;5045474;28;911;-68
2022/11/14 10:03:41;;;;;;;;;;;19.60;69.90;;;;;;5051107;28;1945;-68
2022/11/14 10:06:17;;;;;;;;;;;19.60;69.90;;;;;;5053437;28;1124;-70
2022/11/14 10:08:49;;;;;;;;;;;19.50;69.90;;;;;;5063505;28;1223;-69
2022/11/14 10:11:33;;;;;;;;;;;19.50;69.90;;;;;;5060753;28;903;-70
2022/11/14 10:14:02;;;;;;;;;;;19.50;69.90;;;;;;5063776;28;836;-70
2022/11/14 10:16:30;;;;;;;;;;;19.50;69.90;;;;;;5064382;28;1344;-70
2022/11/14 10:19:17;;;;;;;;;;;19.50;69.90;;;;;;5066279;28;1608;-71
2022/11/14 10:21:52;;;;;;;;;;;19.50;70.00;;;;;;5047511;28;896;-70
2022/11/14 10:24:17;;;;;;;;;;;19.50;70.00;;;;;;5047574;28;1918;-69
2022/11/14 10:26:47;;;;;;;;;;;19.50;70.00;;;;;;5066097;28;851;-71
2022/11/14 10:29:27;;;;;;;;;;;19.50;70.10;;;;;;5049714;28;1243;-71
2022/11/14 10:31:58;;;;;;;;;;;19.50;70.00;;;;;;5063374;28;1126;-69
2022/11/14 10:34:32;;;;;;;;;;;19.50;70.00;;;;;;5052798;28;847;-70
2022/11/14 10:37:21;;;;;;;;;;;19.50;70.10;;;;;;5046892;28;818;-70
2022/11/14 10:39:49;;;;;;;;;;;19.50;70.00;;;;;;5051651;28;1277;-70
2022/11/14 10:42:16;;;;;;;;;;;19.50;70.10;;;;;;5050088;28;1894;-70
2022/11/14 10:44:46;;;;;;;;;;;19.50;70.10;;;;;;5049395;28;848;-70
2022/11/14 10:47:13;;;;;;;;;;;19.50;70.10;;;;;;5046020;28;1171;-71
2022/11/14 10:49:38;;;;;;;;;;;19.50;70.10;;;;;;5061036;28;1288;-70
2022/11/14 10:52:05;;;;;;;;;;;19.50;70.10;;;;;;5051189;28;891;-70
2022/11/14 10:54:40;;;;;;;;;;;19.50;70.10;;;;;;5045170;28;886;-71
2022/11/14 10:57:15;;;;;;;;;;;19.50;70.10;;;;;;5062953;28;769;-70
2022/11/14 10:59:42;;;;;;;;;;;19.40;70.10;;;;;;5064968;28;1219;-70
2022/11/14 11:02:07;;;;;;;;;;;19.50;70.20;;;;;;5061710;28;891;-68
2022/11/14 11:04:36;;;;;;;;;;;19.50;70.20;;;;;;5063746;28;1953;-67
2022/11/14 11:07:07;;;;;;;;;;;19.50;70.20;;;;;;5061769;28;962;-68
2022/11/14 11:12:18;;;;;;;;;;;19.40;70.20;;;;;;5065131;28;827;-68
2022/11/14 11:14:44;;;;;;;;;;;19.40;70.20;;;;;;5050595;28;990;-68
2022/11/14 11:17:09;;;;;;;;;;;19.50;70.20;;;;;;5049150;28;953;-68
2022/11/14 11:19:35;;;;;;;;;;;19.40;70.20;;;;;;5063036;28;1339;-68
2022/11/14 11:22:00;;;;;;;;;;;19.40;70.20;;;;;;5040459;28;862;-69
2022/11/14 11:24:32;;;;;;;;;;;19.40;70.20;;;;;;5051831;28;1898;-69
2022/11/14 11:27:14;;;;;;;;;;;19.50;70.30;;;;;;5065180;28;1345;-69
2022/11/14 11:29:39;;;;;;;;;;;19.40;70.20;;;;;;5063475;28;1250;-69
2022/11/14 11:32:05;;;;;;;;;;;19.40;70.20;;;;;;5065250;28;1500;-68
2022/11/14 11:34:31;;;;;;;;;;;19.40;70.20;;;;;;5049790;28;1576;-68
2022/11/14 11:36:59;;;;;;;;;;;19.40;70.20;;;;;;5045652;28;837;-68
2022/11/14 11:39:26;;;;;;;;;;;19.40;70.30;;;;;;5049576;28;1184;-69
2022/11/14 11:41:53;;;;;;;;;;;19.40;70.30;;;;;;5066130;28;879;-68
2022/11/14 11:44:19;;;;;;;;;;;19.40;70.30;;;;;;5067542;28;1894;-70
2022/11/14 11:46:47;;;;;;;;;;;19.40;70.30;;;;;;5064989;28;851;-68
2022/11/14 11:49:18;;;;;;;;;;;19.40;70.30;;;;;;5067796;28;1439;-69
2022/11/14 11:51:44;;;;;;;;;;;19.40;70.30;;;;;;5068850;28;1366;-69
2022/11/14 11:54:12;;;;;;;;;;;19.40;70.30;;;;;;5054857;28;1415;-69
2022/11/14 11:56:38;;;;;;;;;;;19.40;70.30;;;;;;5070586;28;1599;-69
2022/11/14 11:59:19;;;;;;;;;;;19.40;70.30;;;;;;5047655;28;1364;-68
2022/11/14 12:01:45;;;;;;;;;;;19.40;70.40;;;;;;5067510;28;1670;-68
2022/11/14 12:04:10;;;;;;;;;;;19.40;70.40;;;;;;5052335;28;1975;-69
2022/11/14 12:06:41;;;;;;;;;;;19.40;70.40;;;;;;5066596;28;1339;-70
2022/11/14 12:09:35;;;;;;;;;;;19.40;70.40;;;;;;5052889;28;1427;-68
2022/11/14 12:12:02;;;;;;;;;;;19.40;70.40;;;;;;5047515;28;1745;-70
2022/11/14 12:14:32;;;;;;;;;;;19.40;70.40;;;;;;5051727;28;1406;-69
2022/11/14 12:16:58;;;;;;;;;;;19.40;70.40;;;;;;5052394;28;1351;-70
2022/11/14 12:19:30;;;;;;;;;;;19.40;70.50;;;;;;5066921;28;1590;-70
2022/11/14 12:22:05;;;;;;;;;;;19.40;70.40;;;;;;5047207;28;1499;-70
2022/11/14 12:24:30;;;;;;;;;;;19.40;70.50;;;;;;5067949;28;1890;-69
2022/11/14 12:27:08;;;;;;;;;;;19.40;70.50;;;;;;5067388;28;1337;-71
2022/11/14 12:29:45;;;;;;;;;;;19.40;70.50;;;;;;5066769;28;1342;-70
2022/11/14 12:32:12;;;;;;;;;;;19.40;70.50;;;;;;5066197;28;1360;-70
2022/11/14 12:34:38;;;;;;;;;;;19.40;70.50;;;;;;5050525;28;899;-69
2022/11/14 12:37:08;;;;;;;;;;;19.40;70.50;;;;;;5051601;28;844;-70
2022/11/14 12:39:33;;;;;;;;;;;19.40;70.50;;;;;;5047604;28;1291;-69
2022/11/14 12:41:59;;;;;;;;;;;19.40;70.60;;;;;;5051877;28;895;-70
2022/11/14 12:44:28;;;;;;;;;;;19.40;70.50;;;;;;5044619;28;1956;-70
2022/11/14 12:47:05;;;;;;;;;;;19.40;70.50;;;;;;5057876;28;1646;-69
2022/11/14 12:49:37;;;;;;;;;;;19.40;70.50;;;;;;5055410;28;1271;-68
2022/11/14 12:52:02;;;;;;;;;;;19.40;70.50;;;;;;5058197;28;972;-69
2022/11/14 12:54:40;;;;;;;;;;;19.40;70.50;;;;;;5047610;28;1298;-68
2022/11/14 12:57:08;;;;;;;;;;;19.40;70.60;;;;;;5047323;28;927;-71
2022/11/14 12:59:39;;;;;;;;;;;19.40;70.70;;;;;;5053314;28;1343;-68
2022/11/14 13:02:23;;;;;;;;;;;19.40;70.60;;;;;;5049686;28;819;-67
2022/11/14 13:05:07;;;;;;;;;;;19.40;70.70;;;;;;5066583;28;812;-69
2022/11/14 13:07:38;;;;;;;;;;;19.30;70.60;;;;;;5065507;28;832;-70
2022/11/14 13:10:09;;;;;;;;;;;19.40;70.70;;;;;;5065840;28;1362;-69
2022/11/14 13:22:11;;;;;;;;;;;19.30;70.70;;;;;;4970927;28;1462;-70
2022/11/14 13:24:58;;;;;;;;;;;19.30;70.70;;;;;;5069076;28;1965;-70
2022/11/14 13:27:24;;;;;;;;;;;19.40;70.70;;;;;;5062377;28;1359;-69
2022/11/14 13:29:49;;;;;;;;;;;19.30;70.70;;;;;;5052468;28;1386;-70
2022/11/14 13:32:35;;;;;;;;;;;19.30;70.70;;;;;;5064055;28;1061;-69
2022/11/14 13:35:03;;;;;;;;;;;19.30;70.70;;;;;;5066985;28;1082;-69
2022/11/14 13:37:32;;;;;;;;;;;19.40;70.70;;;;;;5052946;28;855;-69
2022/11/14 13:39:57;;;;;;;;;;;19.30;70.70;;;;;;5064541;28;1369;-69
2022/11/14 13:42:31;;;;;;;;;;;19.30;70.70;;;;;;5048994;28;1902;-69
2022/11/14 13:44:56;;;;;;;;;;;19.30;70.70;;;;;;5046108;28;887;-69
2022/11/14 13:47:22;;;;;;;;;;;19.30;70.70;;;;;;5063141;28;920;-69
2022/11/14 13:49:47;;;;;;;;;;;19.30;70.70;;;;;;5061755;28;1247;-68
2022/11/14 13:52:13;;;;;;;;;;;19.30;70.70;;;;;;5065019;28;848;-69
2022/11/14 13:54:44;;;;;;;;;;;19.30;70.70;;;;;;5051141;28;1258;-70
2022/11/14 13:57:14;;;;;;;;;;;19.30;70.70;;;;;;5062902;28;839;-70
2022/11/14 13:59:40;;;;;;;;;;;19.30;70.80;;;;;;5049783;28;1220;-70
2022/11/14 14:02:18;;;;;;;;;;;19.30;70.80;;;;;;5065144;28;1253;-71
2022/11/14 14:05:02;;;;;;;;;;;19.30;70.80;;;;;;5065065;28;1639;-71
2022/11/14 14:07:47;;;;;;;;;;;19.30;70.80;;;;;;5064335;28;1239;-70
2022/11/14 14:10:45;;;;;;;;;;;19.30;70.80;;;;;;5051315;28;1430;-72
2022/11/14 14:13:19;;;;;;;;;;;19.30;70.80;;;;;;5026251;28;1405;-68
2022/11/14 14:15:52;;;;;;;;;;;19.30;70.80;;;;;;5051216;28;1611;-69
2022/11/14 14:18:17;;;;;;;;;;;19.30;70.80;;;;;;5046492;28;1493;-69
2022/11/14 14:20:47;;;;;;;;;;;19.30;71.50;;;;;;5065046;28;1301;-68
2022/11/14 14:23:24;;;;;;;;;;;19.30;70.80;;;;;;5049739;28;1936;-68
2022/11/14 14:26:01;;;;;;;;;;;19.30;70.80;;;;;;5059293;28;1316;-70
2022/11/14 14:28:45;;;;;;;;;;;19.30;70.80;;;;;;5047339;28;1439;-69
2022/11/14 14:31:12;;;;;;;;;;;19.30;70.80;;;;;;5063815;28;1422;-69
2022/11/14 14:33:39;;;;;;;;;;;19.30;70.80;;;;;;5044101;28;1566;-69
2022/11/14 14:36:14;;;;;;;;;;;19.30;70.80;;;;;;5050899;28;1379;-69
2022/11/14 14:38:39;;;;;;;;;;;19.30;70.80;;;;;;5050883;28;1363;-68
2022/11/14 14:41:05;;;;;;;;;;;19.30;70.80;;;;;;5067316;28;1035;-68
2022/11/14 14:43:31;;;;;;;;;;;19.30;70.80;;;;;;5065669;28;1898;-70
2022/11/14 14:45:57;;;;;;;;;;;19.30;70.80;;;;;;5061943;28;788;-68
2022/11/14 14:48:24;;;;;;;;;;;19.30;70.90;;;;;;5063487;28;1254;-69